Terminal Aerodrome Forecast
Issued by NWS Wichita, KS

Home | Current Version | Previous Version | Text Only | Print | Product List | Glossary On
Versions: 1 2 3 4 5 6 7 8 9 10 11 12 13
714
FTUS43 KICT 261132
TAFICT
TAF
KICT 261132Z 2612/2712 18013KT P6SM VCSH SCT100 BKN250
     FM261500 20015G21KT P6SM SCT080 BKN250
     FM262200 20016G24KT P6SM VCTS SCT080CB
     FM270100 20012KT P6SM VCTS BKN080CB
     FM270500 36010KT P6SM VCSH BKN080=

USA.gov is the U.S. government's official web portal to all federal, state and local government web resources and services.